createdAt,value
2023-03-30T00:01:34.505Z,75.66
2023-03-30T00:04:02.808Z,75.61
2023-03-30T00:06:29.661Z,75.16
2023-03-30T00:09:06.157Z,75.61
2023-03-30T00:11:35.545Z,75.57
2023-03-30T00:14:02.179Z,74.98
2023-03-30T00:16:31.569Z,75.36
2023-03-30T00:18:58.167Z,75.04
2023-03-30T00:21:28.144Z,75.23
2023-03-30T00:23:54.816Z,75.18
2023-03-30T00:26:22.367Z,75.10
2023-03-30T00:28:51.248Z,75.03
2023-03-30T00:31:18.028Z,75.05
2023-03-30T00:33:47.924Z,74.89
2023-03-30T00:36:16.625Z,74.92
2023-03-30T00:38:44.178Z,75.03
2023-03-30T00:41:10.978Z,75.23
2023-03-30T00:44:01.557Z,75.02
2023-03-30T00:46:32.070Z,74.87
2023-03-30T00:49:10.908Z,74.83
2023-03-30T00:51:40.623Z,74.45
2023-03-30T00:54:15.863Z,74.47
2023-03-30T00:56:42.975Z,75.11
2023-03-30T00:59:10.599Z,74.82
2023-03-30T01:01:39.644Z,74.83
2023-03-30T01:04:08.326Z,74.83
2023-03-30T01:06:40.648Z,75.26
2023-03-30T01:09:08.534Z,75.13
2023-03-30T01:11:35.250Z,74.95
2023-03-30T01:14:08.846Z,75.05
2023-03-30T01:17:14.366Z,74.81
2023-03-30T01:19:58.759Z,75.35
2023-03-30T01:22:28.347Z,74.76
2023-03-30T01:25:10.209Z,75.18
2023-03-30T01:28:01.228Z,74.58
2023-03-30T01:30:49.232Z,74.78
2023-03-30T01:33:28.278Z,74.53
2023-03-30T01:36:13.926Z,74.62
2023-03-30T01:39:23.293Z,74.96
2023-03-30T01:41:53.189Z,74.70
2023-03-30T01:44:33.170Z,74.65
2023-03-30T01:47:02.278Z,74.96
2023-03-30T01:49:38.069Z,74.83
2023-03-30T01:52:18.242Z,74.42
2023-03-30T01:54:52.138Z,74.82
2023-03-30T01:57:43.651Z,74.44
2023-03-30T02:00:14.867Z,74.58
2023-03-30T02:03:08.726Z,75.10
2023-03-30T02:05:37.222Z,74.90
2023-03-30T02:08:11.509Z,75.12
2023-03-30T02:10:39.505Z,74.49
2023-03-30T02:13:07.623Z,74.97
2023-03-30T02:15:45.937Z,75.18
2023-03-30T02:18:12.684Z,75.46
2023-03-30T02:20:39.791Z,75.29
2023-03-30T02:23:07.548Z,75.63
2023-03-30T02:25:38.519Z,75.88
2023-03-30T02:28:09.293Z,75.85
2023-03-30T02:30:41.550Z,75.73
2023-03-30T02:33:20.705Z,75.55
2023-03-30T02:35:50.018Z,75.45
2023-03-30T02:39:08.768Z,75.85
2023-03-30T02:41:44.114Z,76.20
2023-03-30T02:44:51.383Z,75.71
2023-03-30T02:47:23.733Z,75.39
2023-03-30T02:50:18.186Z,75.87
2023-03-30T02:52:59.052Z,75.57
2023-03-30T02:56:03.973Z,75.78
2023-03-30T02:58:49.949Z,75.38
2023-03-30T03:01:30.298Z,76.35
2023-03-30T03:03:59.412Z,75.98
2023-03-30T03:06:32.254Z,75.35
2023-03-30T03:09:01.793Z,76.33
2023-03-30T03:11:30.872Z,75.83
2023-03-30T03:13:57.493Z,75.92
2023-03-30T03:16:26.886Z,75.58
2023-03-30T03:18:53.913Z,75.33
2023-03-30T03:21:20.602Z,75.77
2023-03-30T03:23:49.736Z,75.80
2023-03-30T03:26:16.410Z,75.68
2023-03-30T03:28:43.100Z,76.08
2023-03-30T03:31:09.839Z,75.80
2023-03-30T03:33:36.545Z,75.65
2023-03-30T03:36:04.155Z,76.32
2023-03-30T03:38:33.045Z,76.29
2023-03-30T03:41:02.594Z,76.22
2023-03-30T03:43:31.802Z,75.60
2023-03-30T03:45:58.620Z,76.11
2023-03-30T03:48:25.592Z,75.90
2023-03-30T03:50:58.112Z,76.23
2023-03-30T03:53:27.670Z,76.16
2023-03-30T03:55:54.928Z,75.50
2023-03-30T03:58:24.249Z,75.44
2023-03-30T04:00:51.195Z,76.14
2023-03-30T04:03:20.878Z,75.54
2023-03-30T04:05:49.726Z,76.01
2023-03-30T04:08:18.178Z,75.94
2023-03-30T04:10:49.665Z,75.43
2023-03-30T04:13:18.702Z,75.55
2023-03-30T04:15:45.377Z,75.78
2023-03-30T04:18:12.838Z,75.57
2023-03-30T04:20:41.850Z,75.63
2023-03-30T04:23:16.459Z,76.26
2023-03-30T04:25:43.133Z,75.36
2023-03-30T04:28:11.769Z,76.00
2023-03-30T04:30:38.834Z,75.63
2023-03-30T04:33:09.443Z,75.73
2023-03-30T04:35:36.114Z,76.19
2023-03-30T04:38:07.564Z,76.09
2023-03-30T04:40:36.616Z,75.49
2023-03-30T04:43:07.224Z,76.23
2023-03-30T04:45:33.852Z,75.57
2023-03-30T04:48:00.718Z,76.12
2023-03-30T04:50:27.342Z,75.50
2023-03-30T04:52:53.948Z,75.93
2023-03-30T04:55:20.757Z,75.33
2023-03-30T04:57:49.594Z,75.42
2023-03-30T05:00:17.526Z,75.46
2023-03-30T05:02:44.213Z,75.32
2023-03-30T05:05:11.051Z,75.32
2023-03-30T05:07:37.741Z,74.91
2023-03-30T05:10:04.584Z,74.47
2023-03-30T05:12:33.861Z,75.25
2023-03-30T05:15:00.499Z,74.67
2023-03-30T05:17:35.084Z,75.43
2023-03-30T05:20:02.369Z,75.50
2023-03-30T05:22:31.837Z,75.33
2023-03-30T05:24:58.435Z,74.71
2023-03-30T05:27:27.689Z,75.37
2023-03-30T05:29:54.336Z,75.53
2023-03-30T05:32:21.710Z,74.87
2023-03-30T05:34:51.145Z,74.96
2023-03-30T05:37:17.731Z,75.53
2023-03-30T05:39:48.332Z,75.14
2023-03-30T05:42:14.968Z,75.16
2023-03-30T05:44:41.771Z,75.74
2023-03-30T05:47:08.422Z,75.72
2023-03-30T05:49:35.055Z,75.13
2023-03-30T05:52:01.937Z,74.88
2023-03-30T05:54:28.569Z,75.35
2023-03-30T05:56:55.305Z,75.20
2023-03-30T05:59:21.976Z,74.80
2023-03-30T06:01:48.662Z,75.05
2023-03-30T06:04:16.482Z,74.98
2023-03-30T06:06:43.419Z,75.54
2023-03-30T06:09:11.292Z,75.19
2023-03-30T06:11:40.616Z,74.67
2023-03-30T06:14:07.234Z,74.86
2023-03-30T06:16:37.051Z,75.20
2023-03-30T06:19:06.464Z,74.82
2023-03-30T06:21:33.077Z,75.06
2023-03-30T06:24:01.955Z,74.80
2023-03-30T06:26:28.589Z,74.84
2023-03-30T06:28:59.695Z,74.95
2023-03-30T06:31:29.386Z,75.01
2023-03-30T06:33:58.248Z,74.80
2023-03-30T06:36:44.751Z,75.22
2023-03-30T06:39:13.521Z,74.63
2023-03-30T06:41:40.534Z,74.91
2023-03-30T06:44:10.427Z,74.22
2023-03-30T06:46:38.204Z,73.92
2023-03-30T06:49:07.589Z,74.17
2023-03-30T06:51:37.931Z,74.32
2023-03-30T06:54:04.981Z,74.30
2023-03-30T06:56:31.618Z,73.95
2023-03-30T06:58:58.413Z,73.95
2023-03-30T07:01:25.148Z,73.68
2023-03-30T07:03:55.010Z,73.55
2023-03-30T07:06:22.675Z,74.08
2023-03-30T07:08:54.510Z,73.87
2023-03-30T07:11:23.877Z,73.60
2023-03-30T07:13:50.658Z,74.18
2023-03-30T07:16:20.067Z,73.43
2023-03-30T07:18:46.870Z,74.26
2023-03-30T07:21:13.868Z,73.60
2023-03-30T07:23:41.195Z,73.15
2023-03-30T07:26:07.888Z,74.13
2023-03-30T07:28:38.276Z,73.59
2023-03-30T07:31:07.146Z,73.72
2023-03-30T07:33:34.584Z,73.10
2023-03-30T07:36:01.270Z,73.49
2023-03-30T07:38:28.289Z,73.28
2023-03-30T07:40:55.421Z,73.02
2023-03-30T07:43:22.388Z,72.73
2023-03-30T07:45:49.182Z,73.01
2023-03-30T07:48:15.884Z,72.49
2023-03-30T07:50:42.647Z,73.08
2023-03-30T07:53:09.267Z,72.71
2023-03-30T07:55:36.052Z,72.67
2023-03-30T07:58:02.696Z,72.83
2023-03-30T08:00:29.371Z,72.50
2023-03-30T08:02:58.794Z,72.63
2023-03-30T08:05:25.702Z,72.43
2023-03-30T08:07:53.069Z,72.38
2023-03-30T08:10:19.787Z,71.46
2023-03-30T08:12:46.415Z,71.60
2023-03-30T08:15:13.214Z,72.06
2023-03-30T08:17:39.827Z,71.52
2023-03-30T08:20:10.920Z,71.20
2023-03-30T08:22:37.992Z,71.55
2023-03-30T08:25:05.295Z,71.25
2023-03-30T08:27:34.458Z,71.62
2023-03-30T08:30:03.638Z,71.85
2023-03-30T08:32:30.444Z,71.11
2023-03-30T08:34:57.250Z,70.95
2023-03-30T08:37:25.121Z,70.29
2023-03-30T08:39:54.217Z,70.20
2023-03-30T08:42:42.879Z,70.31
2023-03-30T08:45:14.557Z,69.89
2023-03-30T08:47:44.679Z,69.98
2023-03-30T08:50:35.017Z,69.28
2023-03-30T08:53:09.541Z,69.42
2023-03-30T08:55:36.294Z,67.82
2023-03-30T08:58:14.988Z,66.28
2023-03-30T09:00:48.948Z,66.23
2023-03-30T09:03:30.332Z,65.79
2023-03-30T09:06:07.288Z,66.05
2023-03-30T09:08:37.041Z,66.20
2023-03-30T09:11:15.162Z,66.26
2023-03-30T09:13:46.460Z,66.87
2023-03-30T09:16:28.867Z,66.61
2023-03-30T09:18:57.998Z,66.76
2023-03-30T09:21:31.567Z,67.47
2023-03-30T09:24:01.167Z,67.21
2023-03-30T09:26:34.553Z,67.39
2023-03-30T09:29:30.640Z,66.87
2023-03-30T09:32:14.251Z,67.22
2023-03-30T09:34:56.885Z,68.03
2023-03-30T09:37:24.252Z,67.88
2023-03-30T09:39:51.053Z,68.15
2023-03-30T09:42:39.314Z,68.52
2023-03-30T09:45:15.425Z,68.22
2023-03-30T09:47:42.548Z,67.85
2023-03-30T09:50:17.936Z,67.95
2023-03-30T09:52:58.832Z,68.26
2023-03-30T09:55:29.721Z,68.60
2023-03-30T09:58:14.241Z,67.49
2023-03-30T10:00:41.117Z,67.84
2023-03-30T10:03:18.776Z,68.04
2023-03-30T10:06:00.101Z,67.78
2023-03-30T10:08:27.400Z,67.28
2023-03-30T10:10:58.500Z,67.75
2023-03-30T10:13:33.160Z,67.18
2023-03-30T10:16:12.690Z,67.68
2023-03-30T10:18:45.099Z,68.01
2023-03-30T10:21:15.132Z,66.88
2023-03-30T10:23:45.028Z,66.44
2023-03-30T10:26:20.899Z,65.81
2023-03-30T10:29:03.332Z,65.91
2023-03-30T10:31:33.712Z,65.28
2023-03-30T10:34:02.572Z,64.90
2023-03-30T10:36:34.316Z,64.95
2023-03-30T10:39:30.812Z,63.82
2023-03-30T10:42:00.228Z,64.62
2023-03-30T10:44:47.923Z,64.54
2023-03-30T10:47:40.833Z,63.94
2023-03-30T10:50:35.809Z,63.79
2023-03-30T10:53:36.434Z,64.00
2023-03-30T10:56:21.413Z,64.09
2023-03-30T10:58:56.943Z,63.78
2023-03-30T11:01:44.816Z,63.22
2023-03-30T11:04:30.801Z,63.48
2023-03-30T11:07:02.045Z,63.57
2023-03-30T11:09:39.894Z,62.91
2023-03-30T11:12:17.693Z,62.74
2023-03-30T11:14:53.313Z,63.04
2023-03-30T11:17:22.755Z,62.21
2023-03-30T11:20:06.254Z,61.61
2023-03-30T11:22:48.138Z,61.61
2023-03-30T11:25:25.618Z,61.38
2023-03-30T11:28:27.558Z,60.44
2023-03-30T11:30:56.796Z,61.11
2023-03-30T11:33:38.252Z,61.55
2023-03-30T11:36:27.488Z,61.52
2023-03-30T11:39:00.877Z,61.78
2023-03-30T11:41:52.068Z,62.20
2023-03-30T11:44:18.781Z,62.63
2023-03-30T11:46:51.718Z,62.48
2023-03-30T11:49:33.906Z,63.05
2023-03-30T11:52:12.410Z,62.67
2023-03-30T11:55:03.449Z,61.52
2023-03-30T11:57:44.191Z,61.05
2023-03-30T12:00:28.323Z,61.16
2023-03-30T12:03:01.935Z,61.24
2023-03-30T12:05:38.071Z,60.69
2023-03-30T12:08:27.760Z,60.27
2023-03-30T12:11:22.826Z,60.29
2023-03-30T12:13:52.265Z,59.72
2023-03-30T12:16:48.291Z,59.47
2023-03-30T12:19:30.910Z,59.66
2023-03-30T12:22:06.849Z,59.34
2023-03-30T12:24:58.791Z,58.89
2023-03-30T12:27:27.685Z,59.02
2023-03-30T12:32:28.644Z,58.57
2023-03-30T12:34:59.259Z,58.40
2023-03-30T12:37:37.675Z,58.00
2023-03-30T12:40:20.814Z,58.43
2023-03-30T12:43:04.585Z,57.97
2023-03-30T12:45:36.531Z,57.97
2023-03-30T12:48:32.093Z,58.39
2023-03-30T12:51:04.581Z,58.71
2023-03-30T12:53:46.490Z,59.10
2023-03-30T12:56:28.988Z,59.50
2023-03-30T12:58:58.603Z,59.67
2023-03-30T13:01:41.529Z,59.57
2023-03-30T13:04:26.716Z,59.33
2023-03-30T13:06:58.099Z,59.58
2023-03-30T13:09:28.052Z,59.56
2023-03-30T13:11:54.625Z,59.36
2023-03-30T13:14:30.112Z,58.97
2023-03-30T13:16:56.776Z,59.12
2023-03-30T13:19:29.052Z,58.91
2023-03-30T13:22:12.387Z,58.90
2023-03-30T13:24:42.046Z,58.74
2023-03-30T13:27:14.750Z,59.05
2023-03-30T13:29:42.574Z,59.02
2023-03-30T13:32:24.041Z,58.81
2023-03-30T13:35:08.715Z,58.77
2023-03-30T13:38:13.027Z,58.80
2023-03-30T13:41:24.558Z,58.51
2023-03-30T13:43:54.055Z,58.87
2023-03-30T13:47:04.758Z,58.15
2023-03-30T13:49:31.485Z,58.44
2023-03-30T13:52:11.111Z,58.47
2023-03-30T13:54:41.068Z,58.30
2023-03-30T13:57:11.673Z,58.33
2023-03-30T13:59:52.986Z,58.34
2023-03-30T14:02:22.261Z,58.28
2023-03-30T14:04:54.215Z,58.21
2023-03-30T14:07:24.286Z,58.13
2023-03-30T14:10:09.043Z,58.45
2023-03-30T14:12:39.996Z,58.38
2023-03-30T14:15:21.090Z,58.04
2023-03-30T14:17:55.208Z,58.55
2023-03-30T14:20:51.673Z,58.24
2023-03-30T14:23:23.153Z,58.33
2023-03-30T14:25:54.543Z,58.20
2023-03-30T14:28:21.838Z,58.02
2023-03-30T14:30:56.872Z,58.01
2023-03-30T14:33:24.591Z,58.32
2023-03-30T14:35:57.206Z,58.13
2023-03-30T14:38:30.144Z,58.51
2023-03-30T14:41:00.770Z,58.56
2023-03-30T14:43:32.925Z,58.82
2023-03-30T14:46:05.066Z,58.83
2023-03-30T14:48:44.435Z,58.85
2023-03-30T14:51:37.331Z,58.26
2023-03-30T14:54:07.044Z,58.50
2023-03-30T14:56:34.250Z,59.10
2023-03-30T14:59:04.070Z,59.00
2023-03-30T15:01:32.295Z,59.49
2023-03-30T15:04:13.173Z,59.52
2023-03-30T15:06:40.869Z,59.28
2023-03-30T15:09:14.615Z,59.63
2023-03-30T15:11:41.480Z,59.41
2023-03-30T15:14:13.331Z,59.80
2023-03-30T15:16:42.578Z,59.90
2023-03-30T15:19:21.376Z,59.88
2023-03-30T15:21:53.438Z,59.85
2023-03-30T15:24:28.930Z,60.22
2023-03-30T15:26:58.691Z,59.82
2023-03-30T15:29:26.668Z,60.54
2023-03-30T15:32:09.246Z,60.40
2023-03-30T15:34:36.220Z,60.39
2023-03-30T15:37:03.366Z,60.11
2023-03-30T15:39:36.557Z,60.51
2023-03-30T15:42:04.741Z,59.68
2023-03-30T15:44:37.162Z,60.19
2023-03-30T15:47:09.689Z,60.41
2023-03-30T15:49:43.947Z,60.65
2023-03-30T15:52:23.694Z,60.47
2023-03-30T15:54:55.950Z,60.79
2023-03-30T15:57:32.513Z,60.71
2023-03-30T16:00:05.364Z,60.67
2023-03-30T16:02:32.435Z,61.01
2023-03-30T16:05:06.645Z,60.89
2023-03-30T16:07:36.292Z,60.52
2023-03-30T16:10:03.070Z,61.27
2023-03-30T16:12:31.506Z,60.67
2023-03-30T16:14:58.730Z,60.44
2023-03-30T16:17:25.835Z,60.89
2023-03-30T16:19:52.656Z,61.18
2023-03-30T16:22:21.502Z,60.84
2023-03-30T16:24:48.613Z,60.97
2023-03-30T16:27:15.435Z,60.78
2023-03-30T16:29:42.162Z,61.70
2023-03-30T16:32:08.893Z,62.00
2023-03-30T16:34:35.647Z,62.17
2023-03-30T16:37:04.661Z,61.95
2023-03-30T16:39:33.550Z,62.48
2023-03-30T16:42:00.662Z,62.16
2023-03-30T16:44:27.461Z,62.54
2023-03-30T16:46:54.160Z,62.89
2023-03-30T16:49:24.972Z,63.12
2023-03-30T16:51:54.463Z,62.69
2023-03-30T16:54:31.234Z,63.09
2023-03-30T16:57:02.228Z,62.91
2023-03-30T16:59:33.206Z,62.89
2023-03-30T17:02:00.388Z,62.77
2023-03-30T17:04:29.624Z,62.62
2023-03-30T17:06:56.383Z,62.82
2023-03-30T17:09:25.844Z,63.42
2023-03-30T17:11:52.597Z,62.96
2023-03-30T17:14:20.870Z,62.82
2023-03-30T17:16:47.618Z,63.39
2023-03-30T17:19:15.135Z,63.09
2023-03-30T17:21:43.804Z,63.88
2023-03-30T17:24:11.344Z,63.71
2023-03-30T17:26:38.875Z,63.81
2023-03-30T17:29:05.564Z,63.66
2023-03-30T17:31:32.283Z,63.40
2023-03-30T17:33:59.301Z,64.09
2023-03-30T17:36:30.707Z,63.64
2023-03-30T17:38:57.377Z,64.28
2023-03-30T17:41:26.144Z,64.13
2023-03-30T17:43:52.844Z,64.46
2023-03-30T17:46:20.286Z,64.07
2023-03-30T17:48:51.627Z,64.55
2023-03-30T17:51:20.701Z,64.31
2023-03-30T17:53:47.351Z,64.19
2023-03-30T17:56:14.067Z,63.92
2023-03-30T17:58:40.940Z,64.71
2023-03-30T18:01:12.414Z,64.73
2023-03-30T18:03:39.774Z,64.76
2023-03-30T18:06:07.399Z,64.62
2023-03-30T18:08:34.216Z,64.34
2023-03-30T18:11:01.573Z,64.48
2023-03-30T18:13:30.841Z,65.07
2023-03-30T18:15:59.360Z,64.98
2023-03-30T18:18:30.393Z,65.03
2023-03-30T18:21:05.340Z,64.88
2023-03-30T18:23:35.019Z,65.01
2023-03-30T18:26:03.857Z,65.60
2023-03-30T18:28:31.604Z,65.40
2023-03-30T18:31:01.140Z,65.79
2023-03-30T18:33:28.130Z,66.23
2023-03-30T18:35:57.939Z,66.10
2023-03-30T18:38:25.706Z,65.61
2023-03-30T18:40:58.280Z,66.00
2023-03-30T18:43:28.526Z,65.85
2023-03-30T18:45:59.987Z,66.24
2023-03-30T18:48:27.709Z,66.65
2023-03-30T18:50:55.771Z,66.96
2023-03-30T18:53:24.823Z,66.76
2023-03-30T18:55:53.912Z,67.84
2023-03-30T18:58:28.643Z,67.31
2023-03-30T19:00:55.930Z,67.75
2023-03-30T19:03:27.221Z,67.59
2023-03-30T19:05:54.675Z,68.07
2023-03-30T19:08:23.756Z,68.30
2023-03-30T19:10:53.241Z,67.84
2023-03-30T19:13:21.549Z,67.69
2023-03-30T19:15:49.624Z,68.09
2023-03-30T19:18:17.944Z,67.38
2023-03-30T19:20:45.160Z,67.20
2023-03-30T19:23:15.260Z,67.12
2023-03-30T19:25:43.795Z,67.51
2023-03-30T19:28:13.584Z,67.09
2023-03-30T19:30:40.688Z,67.63
2023-03-30T19:33:11.153Z,66.96
2023-03-30T19:35:41.426Z,67.60
2023-03-30T19:38:08.848Z,67.73
2023-03-30T19:40:37.774Z,67.70
2023-03-30T19:43:04.939Z,68.57
2023-03-30T19:45:31.867Z,68.43
2023-03-30T19:47:58.800Z,68.84
2023-03-30T19:50:29.979Z,68.52
2023-03-30T19:52:57.120Z,68.92
2023-03-30T19:55:23.993Z,69.43
2023-03-30T19:57:50.988Z,68.83
2023-03-30T20:00:18.759Z,69.77
2023-03-30T20:02:47.951Z,69.80
2023-03-30T20:05:21.016Z,69.82
2023-03-30T20:07:49.076Z,69.41
2023-03-30T20:10:21.927Z,70.12
2023-03-30T20:12:53.405Z,70.57
2023-03-30T20:15:23.914Z,70.74
2023-03-30T20:17:56.287Z,71.16
2023-03-30T20:20:25.545Z,71.40
2023-03-30T20:22:56.198Z,71.96
2023-03-30T20:25:24.436Z,71.67
2023-03-30T20:27:53.537Z,72.33
2023-03-30T20:30:22.728Z,72.32
2023-03-30T20:33:03.696Z,72.49
2023-03-30T20:35:37.224Z,72.77
2023-03-30T20:38:05.871Z,72.17
2023-03-30T20:40:32.877Z,73.01
2023-03-30T20:43:10.090Z,73.37
2023-03-30T20:45:46.290Z,73.54
2023-03-30T20:48:30.350Z,72.72
2023-03-30T20:50:57.566Z,73.73
2023-03-30T20:53:25.052Z,73.78
2023-03-30T20:55:53.936Z,73.24
2023-03-30T20:58:23.751Z,73.39
2023-03-30T21:00:52.226Z,73.89
2023-03-30T21:03:26.096Z,74.18
2023-03-30T21:06:06.536Z,73.81
2023-03-30T21:08:34.208Z,73.85
2023-03-30T21:11:01.420Z,74.79
2023-03-30T21:13:30.507Z,74.33
2023-03-30T21:16:02.661Z,74.61
2023-03-30T21:18:29.602Z,75.20
2023-03-30T21:20:58.515Z,75.20
2023-03-30T21:23:26.807Z,74.83
2023-03-30T21:25:56.752Z,75.21
2023-03-30T21:28:24.193Z,74.72
2023-03-30T21:30:53.309Z,74.77
2023-03-30T21:33:20.033Z,74.79
2023-03-30T21:35:56.478Z,75.59
2023-03-30T21:38:24.311Z,75.49
2023-03-30T21:40:58.078Z,75.87
2023-03-30T21:43:28.094Z,75.21
2023-03-30T21:46:06.718Z,75.75
2023-03-30T21:48:37.995Z,75.90
2023-03-30T21:51:09.767Z,75.43
2023-03-30T21:53:36.418Z,76.00
2023-03-30T21:56:04.325Z,75.79
2023-03-30T21:58:31.518Z,75.67
2023-03-30T22:01:11.119Z,76.07
2023-03-30T22:03:40.817Z,76.49
2023-03-30T22:06:13.296Z,76.26
2023-03-30T22:08:40.470Z,76.33
2023-03-30T22:11:21.691Z,76.92
2023-03-30T22:13:49.810Z,76.59
2023-03-30T22:16:25.728Z,77.15
2023-03-30T22:18:52.781Z,76.60
2023-03-30T22:21:29.326Z,77.00
2023-03-30T22:24:00.875Z,76.82
2023-03-30T22:26:30.095Z,77.08
2023-03-30T22:28:56.992Z,76.96
2023-03-30T22:31:26.731Z,77.26
2023-03-30T22:33:55.153Z,77.18
2023-03-30T22:36:24.594Z,76.66
2023-03-30T22:38:52.068Z,76.96
2023-03-30T22:41:24.063Z,77.02
2023-03-30T22:43:52.224Z,77.06
2023-03-30T22:46:18.949Z,77.18
2023-03-30T22:48:45.717Z,76.84
2023-03-30T22:51:23.570Z,76.83
2023-03-30T22:53:50.447Z,76.85
2023-03-30T22:56:17.115Z,77.17
2023-03-30T22:58:43.791Z,76.69
2023-03-30T23:01:14.358Z,77.05
2023-03-30T23:03:41.563Z,77.16
2023-03-30T23:06:09.383Z,76.97
2023-03-30T23:08:36.319Z,76.78
2023-03-30T23:11:08.455Z,76.46
2023-03-30T23:13:42.246Z,76.45
2023-03-30T23:16:10.590Z,76.33
2023-03-30T23:18:37.460Z,76.88
2023-03-30T23:21:06.503Z,76.96
2023-03-30T23:23:37.789Z,76.06
2023-03-30T23:26:09.057Z,76.74
2023-03-30T23:28:41.815Z,76.25
2023-03-30T23:31:17.542Z,76.50
2023-03-30T23:33:46.760Z,76.66
2023-03-30T23:36:14.376Z,76.92
2023-03-30T23:38:41.540Z,76.50
2023-03-30T23:41:08.999Z,76.99
2023-03-30T23:43:35.808Z,77.06
2023-03-30T23:46:02.468Z,76.72
2023-03-30T23:48:29.366Z,76.56
2023-03-30T23:50:59.400Z,76.86
2023-03-30T23:53:29.181Z,76.75
2023-03-30T23:55:56.340Z,76.65
2023-03-30T23:58:23.121Z,76.68
